Time;durP1;ratioP1;P1;durP2;ratioP2;P2;SDS_P1;SDS_P2;PMS_P1;PMS_P2;Temp;Humidity;BMP_temperature;BMP_pressure;BME280_temperature;BME280_humidity;BME280_pressure;Samples;Min_cycle;Max_cycle;Signal;HPM_P1;HPM_P2
2022/12/03 08:01:44;;;;;;;16.83;13.20;;;;;;;;;;526714;27;1294;-60
2022/12/03 08:01:59;;;;;;;15.57;12.88;;;;;;;;;;527076;27;1264;-58
2022/12/03 08:02:14;;;;;;;16.10;13.20;;;;;;;;;;529272;27;1603;-58
2022/12/03 08:02:30;;;;;;;16.43;13.60;;;;;;;;;;529419;27;1124;-58
2022/12/03 08:02:45;;;;;;;16.58;13.43;;;;;;;;;;529199;27;1390;-58
2022/12/03 08:03:00;;;;;;;17.00;13.47;;;;;;;;;;526111;27;1906;-58
2022/12/03 08:03:15;;;;;;;16.33;13.23;;;;;;;;;;523852;28;1323;-58
2022/12/03 08:03:31;;;;;;;16.58;13.18;;;;;;;;;;522894;28;1250;-58
2022/12/03 08:03:46;;;;;;;17.53;13.60;;;;;;;;;;521322;28;1572;-59
2022/12/03 08:04:01;;;;;;;17.20;13.37;;;;;;;;;;522979;28;968;-58
2022/12/03 08:04:17;;;;;;;16.27;13.30;;;;;;;;;;522629;28;1399;-58
2022/12/03 08:04:33;;;;;;;15.20;12.93;;;;;;;;;;523118;28;1116;-58
2022/12/03 08:04:48;;;;;;;15.67;13.10;;;;;;;;;;523493;28;999;-58
2022/12/03 08:05:15;;;;;;;16.67;13.55;;;;;;;;;;250486;28;10001260;-59
2022/12/03 08:05:31;;;;;;;15.93;13.00;;;;;;;;;;523340;28;1504;-58
2022/12/03 08:05:46;;;;;;;16.43;13.03;;;;;;;;;;519761;28;1436;-58
2022/12/03 08:06:01;;;;;;;16.93;13.33;;;;;;;;;;524978;27;1167;-58
2022/12/03 08:06:17;;;;;;;16.58;13.25;;;;;;;;;;523999;28;1490;-58
2022/12/03 08:06:32;;;;;;;15.93;13.17;;;;;;;;;;525084;28;1223;-59
2022/12/03 08:06:47;;;;;;;15.70;12.90;;;;;;;;;;523403;28;1649;-59
2022/12/03 08:07:03;;;;;;;16.23;12.77;;;;;;;;;;524565;28;1398;-59
2022/12/03 08:07:18;;;;;;;16.63;13.10;;;;;;;;;;524133;28;1603;-58
2022/12/03 08:07:34;;;;;;;16.00;13.20;;;;;;;;;;523070;28;1342;-58
2022/12/03 08:07:49;;;;;;;15.30;12.88;;;;;;;;;;523763;28;1272;-58
2022/12/03 08:08:04;;;;;;;16.00;12.82;;;;;;;;;;523831;28;1161;-58
2022/12/03 08:08:20;;;;;;;15.90;13.07;;;;;;;;;;522358;28;1634;-58
2022/12/03 08:08:35;;;;;;;15.60;12.90;;;;;;;;;;523261;28;1272;-59
2022/12/03 08:08:50;;;;;;;15.57;12.75;;;;;;;;;;523933;28;1398;-58
2022/12/03 08:09:06;;;;;;;14.97;12.57;;;;;;;;;;522580;28;1261;-58
2022/12/03 08:09:21;;;;;;;14.93;12.57;;;;;;;;;;521994;28;1138;-58
2022/12/03 08:09:38;;;;;;;15.30;12.63;;;;;;;;;;522342;28;1126;-60
2022/12/03 08:09:54;;;;;;;15.27;12.63;;;;;;;;;;525070;28;1330;-58
2022/12/03 08:10:09;;;;;;;15.00;12.47;;;;;;;;;;520633;28;1156;-58
2022/12/03 08:10:25;;;;;;;14.57;12.43;;;;;;;;;;519965;28;1169;-58
2022/12/03 08:10:40;;;;;;;15.18;12.80;;;;;;;;;;519787;28;1194;-59
2022/12/03 08:10:55;;;;;;;16.07;12.93;;;;;;;;;;523001;28;1360;-58
2022/12/03 08:11:14;;;;;;;15.90;12.90;;;;;;;;;;524117;28;1443;-58
2022/12/03 08:11:29;;;;;;;15.27;13.00;;;;;;;;;;523352;28;1124;-59
2022/12/03 08:11:47;;;;;;;15.43;12.93;;;;;;;;;;520912;28;2505;-58
2022/12/03 08:12:11;;;;;;;15.30;12.73;;;;;;;;;;522302;28;1615;-58
2022/12/03 08:12:38;;;;;;;14.60;12.27;;;;;;;;;;525311;28;1211;-58
2022/12/03 08:12:56;;;;;;;15.18;12.95;;;;;;;;;;525972;28;1301;-58
2022/12/03 08:13:13;;;;;;;15.70;13.10;;;;;;;;;;525700;28;1758;-59
2022/12/03 08:13:29;;;;;;;15.63;12.88;;;;;;;;;;525266;28;1367;-58
2022/12/03 08:13:44;;;;;;;14.90;12.45;;;;;;;;;;528266;27;1422;-60
2022/12/03 08:14:01;;;;;;;15.27;12.68;;;;;;;;;;528669;27;1295;-58
2022/12/03 08:14:18;;;;;;;15.40;12.80;;;;;;;;;;525168;28;1226;-58
2022/12/03 08:14:34;;;;;;;14.65;12.73;;;;;;;;;;525437;28;1406;-58
2022/12/03 08:14:49;;;;;;;15.63;13.07;;;;;;;;;;527451;28;1814;-58
2022/12/03 08:15:09;;;;;;;16.48;12.85;;;;;;;;;;523856;28;1379;-58
2022/12/03 08:15:27;;;;;;;16.45;12.68;;;;;;;;;;523810;28;1339;-58
2022/12/03 08:15:42;;;;;;;16.10;12.88;;;;;;;;;;523167;28;1172;-58
2022/12/03 08:16:00;;;;;;;16.23;13.00;;;;;;;;;;524583;28;1054;-58
2022/12/03 08:16:18;;;;;;;15.98;13.07;;;;;;;;;;524633;28;1608;-59
2022/12/03 08:16:38;;;;;;;15.50;12.63;;;;;;;;;;523461;28;2248;-59
2022/12/03 08:16:53;;;;;;;15.98;12.73;;;;;;;;;;521753;28;1330;-58
2022/12/03 08:17:11;;;;;;;16.10;12.67;;;;;;;;;;521638;28;1261;-59
2022/12/03 08:17:27;;;;;;;14.45;12.48;;;;;;;;;;523571;28;1393;-58
2022/12/03 08:17:44;;;;;;;15.43;12.73;;;;;;;;;;521188;28;1196;-58
2022/12/03 08:18:04;;;;;;;15.38;12.65;;;;;;;;;;519486;28;1419;-59
2022/12/03 08:18:20;;;;;;;14.57;12.57;;;;;;;;;;520605;28;1079;-58
2022/12/03 08:18:36;;;;;;;15.30;13.00;;;;;;;;;;519913;28;1058;-58
2022/12/03 08:18:53;;;;;;;14.97;12.93;;;;;;;;;;520763;28;1216;-59
2022/12/03 08:19:13;;;;;;;14.35;12.57;;;;;;;;;;521684;28;1117;-58
2022/12/03 08:19:28;;;;;;;15.30;12.65;;;;;;;;;;522557;28;1371;-59
2022/12/03 08:19:45;;;;;;;16.43;13.07;;;;;;;;;;522565;28;2018;-58
2022/12/03 08:20:14;;;;;;;15.60;12.90;;;;;;;;;;524055;28;1176;-58
2022/12/03 08:20:36;;;;;;;16.40;13.00;;;;;;;;;;522973;28;1145;-58
2022/12/03 08:20:52;;;;;;;15.52;13.00;;;;;;;;;;522029;28;1144;-58
2022/12/03 08:21:15;;;;;;;16.43;13.53;;;;;;;;;;519624;28;1529;-59
2022/12/03 08:21:34;;;;;;;16.55;13.63;;;;;;;;;;518625;28;1666;-58
2022/12/03 08:21:49;;;;;;;16.05;13.43;;;;;;;;;;518770;28;1706;-58
2022/12/03 08:22:12;;;;;;;17.02;13.57;;;;;;;;;;515785;28;1522;-59
2022/12/03 08:22:28;;;;;;;16.17;13.57;;;;;;;;;;517942;28;1009;-58
2022/12/03 08:22:45;;;;;;;15.57;13.15;;;;;;;;;;518391;28;1682;-58
2022/12/03 08:23:05;;;;;;;15.07;12.70;;;;;;;;;;517988;28;2018;-59
2022/12/03 08:23:22;;;;;;;15.18;13.07;;;;;;;;;;521083;28;1114;-59
2022/12/03 08:23:38;;;;;;;15.32;13.15;;;;;;;;;;520710;28;1182;-60
2022/12/03 08:23:55;;;;;;;15.30;12.70;;;;;;;;;;525103;28;1171;-59
2022/12/03 08:24:17;;;;;;;16.17;12.98;;;;;;;;;;523692;28;1430;-59
2022/12/03 08:24:33;;;;;;;15.30;12.50;;;;;;;;;;523109;28;1283;-60
2022/12/03 08:24:48;;;;;;;14.65;12.55;;;;;;;;;;521998;28;1916;-59
2022/12/03 08:25:25;;;;;;;15.20;13.00;;;;;;;;;;522688;28;1094;-59
2022/12/03 08:25:41;;;;;;;15.80;13.05;;;;;;;;;;522461;28;1601;-59
2022/12/03 08:26:00;;;;;;;16.80;13.38;;;;;;;;;;519314;28;1334;-59
2022/12/03 08:26:21;;;;;;;16.05;13.02;;;;;;;;;;521868;28;1140;-59
2022/12/03 08:26:36;;;;;;;15.70;13.07;;;;;;;;;;523777;28;1072;-59
2022/12/03 08:26:52;;;;;;;15.27;13.03;;;;;;;;;;526692;28;1097;-59
2022/12/03 08:27:16;;;;;;;14.83;12.67;;;;;;;;;;524778;28;1586;-59
2022/12/03 08:27:32;;;;;;;16.08;12.95;;;;;;;;;;525844;28;1129;-59
2022/12/03 08:27:47;;;;;;;15.57;13.27;;;;;;;;;;527697;27;1023;-59
2022/12/03 08:28:18;;;;;;;15.50;13.13;;;;;;;;;;525852;27;1611;-59
2022/12/03 08:28:33;;;;;;;15.60;13.10;;;;;;;;;;528656;27;1271;-59
2022/12/03 08:28:49;;;;;;;15.53;12.87;;;;;;;;;;526694;28;1286;-59
2022/12/03 08:29:12;;;;;;;16.10;13.23;;;;;;;;;;523736;28;1392;-59
2022/12/03 08:29:30;;;;;;;16.80;13.80;;;;;;;;;;524283;28;1487;-59
2022/12/03 08:29:45;;;;;;;15.80;13.27;;;;;;;;;;524146;28;1934;-59
2022/12/03 08:30:03;;;;;;;14.57;12.50;;;;;;;;;;521695;28;1199;-59
2022/12/03 08:30:19;;;;;;;14.35;12.55;;;;;;;;;;525019;28;1021;-59
2022/12/03 08:30:34;;;;;;;15.77;13.13;;;;;;;;;;521067;28;1319;-61
2022/12/03 08:31:11;;;;;;;16.15;13.20;;;;;;;;;;524066;28;1156;-59
2022/12/03 08:31:26;;;;;;;14.88;12.63;;;;;;;;;;525645;28;1775;-59
2022/12/03 08:31:46;;;;;;;14.80;12.80;;;;;;;;;;523820;28;1260;-59
2022/12/03 08:32:04;;;;;;;14.70;12.57;;;;;;;;;;521421;28;1380;-59
2022/12/03 08:32:20;;;;;;;15.13;12.75;;;;;;;;;;522500;28;1310;-59
2022/12/03 08:32:35;;;;;;;15.57;12.83;;;;;;;;;;522738;28;1006;-59
2022/12/03 08:32:51;;;;;;;15.88;13.25;;;;;;;;;;524756;28;1082;-60
2022/12/03 08:33:34;;;;;;;15.67;13.30;;;;;;;;;;523091;28;996;-59
2022/12/03 08:33:52;;;;;;;15.88;13.30;;;;;;;;;;517639;28;1344;-59
2022/12/03 08:34:20;;;;;;;16.33;13.70;;;;;;;;;;523165;28;1413;-59
2022/12/03 08:34:41;;;;;;;16.00;13.20;;;;;;;;;;523447;28;1412;-59
2022/12/03 08:34:56;;;;;;;16.08;13.32;;;;;;;;;;524538;28;990;-59
2022/12/03 08:35:23;;;;;;;15.83;13.13;;;;;;;;;;520719;28;1399;-59
2022/12/03 08:35:42;;;;;;;15.50;13.02;;;;;;;;;;522512;28;1275;-59
2022/12/03 08:36:04;;;;;;;15.57;13.35;;;;;;;;;;520649;28;1577;-59
2022/12/03 08:36:29;;;;;;;16.42;13.20;;;;;;;;;;522544;28;1014;-60
2022/12/03 08:36:46;;;;;;;15.80;13.75;;;;;;;;;;524408;28;983;-60
2022/12/03 08:37:13;;;;;;;15.60;13.13;;;;;;;;;;525859;28;1022;-59
2022/12/03 08:37:28;;;;;;;16.17;13.68;;;;;;;;;;523856;28;1027;-60
2022/12/03 08:37:44;;;;;;;16.60;13.77;;;;;;;;;;522935;28;1590;-60
2022/12/03 08:38:10;;;;;;;16.30;13.55;;;;;;;;;;522125;28;1102;-59
2022/12/03 08:38:28;;;;;;;17.75;14.07;;;;;;;;;;522322;28;1082;-60
2022/12/03 08:38:51;;;;;;;17.08;14.07;;;;;;;;;;522301;28;1016;-59
2022/12/03 08:39:28;;;;;;;17.45;13.73;;;;;;;;;;522097;28;960;-60
2022/12/03 08:39:53;;;;;;;16.65;13.70;;;;;;;;;;524916;27;1477;-59
2022/12/03 08:40:25;;;;;;;15.48;13.10;;;;;;;;;;525213;27;1029;-59
2022/12/03 08:40:44;;;;;;;14.75;13.02;;;;;;;;;;528767;27;1081;-60
2022/12/03 08:40:59;;;;;;;16.45;13.45;;;;;;;;;;527378;27;1069;-60
2022/12/03 08:42:39;;;;;;;17.07;13.50;;;;;;;;;;527381;28;1411;-59
2022/12/03 08:42:40;;;;;;;16.52;13.85;;;;;;;;;;524582;28;1093;-59
2022/12/03 08:42:55;;;;;;;17.20;13.77;;;;;;;;;;525904;28;1144;-60
2022/12/03 08:43:28;;;;;;;17.47;13.90;;;;;;;;;;529141;27;1018;-60
2022/12/03 08:43:43;;;;;;;16.58;13.40;;;;;;;;;;526075;28;1640;-59
2022/12/03 08:43:58;;;;;;;16.43;13.40;;;;;;;;;;526528;28;1279;-60
2022/12/03 08:44:37;;;;;;;15.90;13.25;;;;;;;;;;523919;28;1214;-60
2022/12/03 08:44:53;;;;;;;15.90;13.20;;;;;;;;;;525205;28;1038;-59
2022/12/03 08:45:27;;;;;;;16.38;12.70;;;;;;;;;;525215;28;1161;-60
2022/12/03 08:45:43;;;;;;;15.60;13.27;;;;;;;;;;524867;28;1083;-59
2022/12/03 08:45:58;;;;;;;16.58;13.70;;;;;;;;;;527677;28;1133;-59
2022/12/03 08:46:18;;;;;;;16.90;13.47;;;;;;;;;;527012;28;1073;-60
2022/12/03 08:46:33;;;;;;;16.75;13.57;;;;;;;;;;526195;28;1187;-59
2022/12/03 08:47:07;;;;;;;16.45;13.65;;;;;;;;;;528013;27;1450;-60
2022/12/03 08:47:23;;;;;;;15.50;12.90;;;;;;;;;;525794;28;1305;-60
2022/12/03 08:47:39;;;;;;;16.02;13.38;;;;;;;;;;524028;28;1319;-60
2022/12/03 08:47:59;;;;;;;15.95;13.43;;;;;;;;;;526863;27;1136;-60
2022/12/03 08:48:33;;;;;;;15.68;13.20;;;;;;;;;;524565;28;1248;-60
2022/12/03 08:48:48;;;;;;;16.30;13.27;;;;;;;;;;525418;28;1089;-59
2022/12/03 08:49:04;;;;;;;16.03;12.67;;;;;;;;;;525406;28;1030;-60
2022/12/03 08:49:20;;;;;;;16.40;13.17;;;;;;;;;;524257;28;1161;-60
2022/12/03 08:49:36;;;;;;;16.50;13.55;;;;;;;;;;523464;28;2117;-60
2022/12/03 08:49:56;;;;;;;16.25;13.57;;;;;;;;;;525141;28;947;-60
2022/12/03 08:50:26;;;;;;;16.88;13.80;;;;;;;;;;523168;28;2233;-59
2022/12/03 08:50:41;;;;;;;17.05;13.60;;;;;;;;;;523632;28;1093;-60
2022/12/03 08:51:12;;;;;;;17.08;13.60;;;;;;;;;;525220;28;1145;-60
2022/12/03 08:51:27;;;;;;;17.13;13.77;;;;;;;;;;524870;28;1164;-60
2022/12/03 08:51:43;;;;;;;17.37;14.13;;;;;;;;;;524533;28;1285;-60
2022/12/03 08:52:00;;;;;;;17.67;14.13;;;;;;;;;;521761;28;1177;-60
2022/12/03 08:52:19;;;;;;;16.10;13.40;;;;;;;;;;524827;28;1138;-60
2022/12/03 08:52:34;;;;;;;16.67;13.60;;;;;;;;;;525063;28;1047;-59
2022/12/03 08:52:51;;;;;;;17.30;13.70;;;;;;;;;;524561;28;1263;-59
2022/12/03 08:53:12;;;;;;;16.92;13.60;;;;;;;;;;524959;28;1141;-60
2022/12/03 08:53:35;;;;;;;18.05;14.15;;;;;;;;;;521471;28;1411;-59
2022/12/03 08:53:56;;;;;;;16.73;13.90;;;;;;;;;;525939;28;995;-60
2022/12/03 08:54:18;;;;;;;15.85;13.45;;;;;;;;;;526677;28;1125;-59
2022/12/03 08:54:33;;;;;;;17.25;13.75;;;;;;;;;;526479;28;1141;-60
2022/12/03 08:54:53;;;;;;;17.33;13.93;;;;;;;;;;527587;28;1093;-60
2022/12/03 08:55:33;;;;;;;16.33;13.35;;;;;;;;;;527294;28;1074;-59
2022/12/03 08:56:02;;;;;;;16.85;13.45;;;;;;;;;;528134;27;1148;-60
2022/12/03 08:56:21;;;;;;;16.65;13.73;;;;;;;;;;529020;27;1049;-59
2022/12/03 08:56:37;;;;;;;17.35;14.23;;;;;;;;;;528088;27;1133;-60
2022/12/03 08:56:53;;;;;;;17.85;14.23;;;;;;;;;;526756;28;1495;-60
2022/12/03 08:57:28;;;;;;;17.25;14.18;;;;;;;;;;524640;28;1240;-60
2022/12/03 08:57:43;;;;;;;17.83;14.57;;;;;;;;;;523126;28;1474;-60
2022/12/03 08:57:59;;;;;;;17.17;14.20;;;;;;;;;;523873;28;1093;-60
2022/12/03 08:58:20;;;;;;;17.37;14.00;;;;;;;;;;525046;28;1981;-59
2022/12/03 08:58:45;;;;;;;16.80;13.90;;;;;;;;;;524597;28;1078;-59
2022/12/03 08:59:18;;;;;;;16.90;13.88;;;;;;;;;;527087;28;1200;-60
2022/12/03 08:59:34;;;;;;;17.25;13.77;;;;;;;;;;525111;28;1463;-59
2022/12/03 08:59:54;;;;;;;16.87;13.50;;;;;;;;;;525937;28;1129;-59
2022/12/03 09:00:19;;;;;;;17.20;13.80;;;;;;;;;;527313;28;999;-60
2022/12/03 09:00:35;;;;;;;18.08;14.25;;;;;;;;;;526603;28;1047;-60
2022/12/03 09:00:59;;;;;;;18.30;14.55;;;;;;;;;;527034;28;1109;-59
2022/12/03 09:01:26;;;;;;;18.10;13.95;;;;;;;;;;526578;28;1101;-60
2022/12/03 09:01:43;;;;;;;18.42;14.23;;;;;;;;;;529134;27;1062;-59
2022/12/03 09:01:58;;;;;;;18.23;14.38;;;;;;;;;;526067;28;1448;-59
2022/12/03 09:02:24;;;;;;;18.43;14.43;;;;;;;;;;525156;28;1274;-60
2022/12/03 09:02:44;;;;;;;18.10;14.40;;;;;;;;;;524948;28;1025;-60
2022/12/03 09:03:00;;;;;;;16.75;13.85;;;;;;;;;;523879;28;1035;-60
2022/12/03 09:03:17;;;;;;;17.20;14.03;;;;;;;;;;522568;28;1578;-60
2022/12/03 09:03:33;;;;;;;18.02;14.40;;;;;;;;;;522731;28;1070;-60
2022/12/03 09:03:53;;;;;;;17.60;14.13;;;;;;;;;;523166;28;1298;-59
2022/12/03 09:04:18;;;;;;;18.13;14.32;;;;;;;;;;522140;28;1408;-60
2022/12/03 09:04:45;;;;;;;18.13;14.38;;;;;;;;;;519352;28;1484;-60
2022/12/03 09:05:14;;;;;;;17.23;13.98;;;;;;;;;;520162;28;1116;-59
2022/12/03 09:05:33;;;;;;;17.55;14.15;;;;;;;;;;521367;28;1147;-59
2022/12/03 09:05:49;;;;;;;17.55;13.90;;;;;;;;;;521703;28;1175;-61
2022/12/03 09:06:04;;;;;;;17.40;14.03;;;;;;;;;;526392;28;1152;-60
2022/12/03 09:06:20;;;;;;;17.77;14.33;;;;;;;;;;526534;28;1032;-60
2022/12/03 09:06:36;;;;;;;17.95;14.27;;;;;;;;;;527413;27;1012;-60
2022/12/03 09:06:52;;;;;;;18.37;14.20;;;;;;;;;;528892;27;1031;-60
2022/12/03 09:07:08;;;;;;;18.88;14.40;;;;;;;;;;528121;27;1174;-60
2022/12/03 09:07:23;;;;;;;17.97;14.17;;;;;;;;;;529808;27;1112;-63
2022/12/03 09:07:38;;;;;;;16.83;13.50;;;;;;;;;;528717;27;1312;-63
2022/12/03 09:07:53;;;;;;;17.17;13.63;;;;;;;;;;526544;27;1232;-62
2022/12/03 09:08:09;;;;;;;17.73;14.00;;;;;;;;;;529723;27;1120;-63
2022/12/03 09:08:24;;;;;;;17.87;14.03;;;;;;;;;;526828;28;1197;-63
2022/12/03 09:08:39;;;;;;;18.05;14.23;;;;;;;;;;523349;28;1310;-63
2022/12/03 09:08:55;;;;;;;18.07;14.10;;;;;;;;;;524243;28;1477;-63
2022/12/03 09:09:10;;;;;;;17.63;13.93;;;;;;;;;;524859;28;1093;-63
2022/12/03 09:09:25;;;;;;;17.92;14.38;;;;;;;;;;524420;28;1185;-63
2022/12/03 09:09:41;;;;;;;18.43;14.70;;;;;;;;;;523674;28;1227;-63
2022/12/03 09:09:56;;;;;;;18.50;14.53;;;;;;;;;;523292;28;1224;-63
2022/12/03 09:10:11;;;;;;;18.90;14.70;;;;;;;;;;523104;28;1074;-63
2022/12/03 09:10:26;;;;;;;19.27;14.77;;;;;;;;;;524957;28;1208;-63
2022/12/03 09:10:42;;;;;;;18.93;14.60;;;;;;;;;;522575;28;1201;-63
2022/12/03 09:10:57;;;;;;;18.15;14.63;;;;;;;;;;520484;28;962;-63
2022/12/03 09:11:13;;;;;;;17.90;14.50;;;;;;;;;;519278;28;1303;-63
2022/12/03 09:11:28;;;;;;;18.87;14.77;;;;;;;;;;519755;28;1188;-63
2022/12/03 09:11:43;;;;;;;19.50;15.02;;;;;;;;;;520300;28;1306;-64
2022/12/03 09:12:00;;;;;;;18.60;14.93;;;;;;;;;;520110;28;1109;-65
2022/12/03 09:12:16;;;;;;;18.63;14.90;;;;;;;;;;521647;28;1018;-63
2022/12/03 09:12:31;;;;;;;18.20;14.80;;;;;;;;;;521354;28;1254;-64
2022/12/03 09:12:46;;;;;;;18.57;15.17;;;;;;;;;;522918;28;1026;-63
2022/12/03 09:13:02;;;;;;;18.57;15.17;;;;;;;;;;522538;28;1187;-63
2022/12/03 09:13:17;;;;;;;19.10;15.13;;;;;;;;;;522309;28;1184;-64
2022/12/03 09:13:32;;;;;;;19.70;15.27;;;;;;;;;;523710;28;1114;-63
2022/12/03 09:13:48;;;;;;;19.50;15.43;;;;;;;;;;521241;28;1155;-63
2022/12/03 09:14:03;;;;;;;19.52;15.70;;;;;;;;;;521301;28;1197;-63
2022/12/03 09:14:21;;;;;;;19.40;15.27;;;;;;;;;;520727;28;1388;-63
2022/12/03 09:14:36;;;;;;;18.67;14.70;;;;;;;;;;518368;28;1318;-64
2022/12/03 09:14:51;;;;;;;18.67;15.17;;;;;;;;;;519965;28;1158;-64
2022/12/03 09:15:07;;;;;;;18.53;15.00;;;;;;;;;;522292;28;1217;-63
2022/12/03 09:15:22;;;;;;;18.63;14.90;;;;;;;;;;520715;28;1479;-64
2022/12/03 09:15:37;;;;;;;18.80;15.00;;;;;;;;;;518948;28;1378;-64
2022/12/03 09:15:53;;;;;;;18.02;14.77;;;;;;;;;;516034;28;1402;-63
2022/12/03 09:16:08;;;;;;;18.67;14.97;;;;;;;;;;514310;28;1272;-63
2022/12/03 09:16:23;;;;;;;18.90;15.10;;;;;;;;;;517295;28;1091;-62
2022/12/03 09:16:39;;;;;;;19.40;15.52;;;;;;;;;;519359;28;1033;-63
2022/12/03 09:16:55;;;;;;;19.67;15.70;;;;;;;;;;516497;28;1369;-63
2022/12/03 09:17:10;;;;;;;18.53;15.10;;;;;;;;;;517382;28;1301;-63
2022/12/03 09:17:26;;;;;;;19.17;15.35;;;;;;;;;;519391;28;1043;-63
2022/12/03 09:17:41;;;;;;;20.37;15.87;;;;;;;;;;520074;28;1540;-63
2022/12/03 09:17:56;;;;;;;20.13;15.83;;;;;;;;;;522941;28;1134;-63
2022/12/03 09:18:13;;;;;;;19.93;15.53;;;;;;;;;;522554;28;1978;-63
2022/12/03 09:18:28;;;;;;;20.02;15.60;;;;;;;;;;525451;28;1220;-63
2022/12/03 09:18:43;;;;;;;19.75;15.50;;;;;;;;;;523758;28;1230;-63
2022/12/03 09:18:59;;;;;;;19.67;15.30;;;;;;;;;;523152;28;1089;-62
2022/12/03 09:19:14;;;;;;;20.47;15.73;;;;;;;;;;519780;28;1052;-63
2022/12/03 09:19:30;;;;;;;20.17;15.80;;;;;;;;;;520907;28;1496;-63
2022/12/03 09:19:45;;;;;;;19.50;15.83;;;;;;;;;;523682;28;1292;-62
2022/12/03 09:20:01;;;;;;;19.42;15.50;;;;;;;;;;523609;28;1090;-63
2022/12/03 09:20:16;;;;;;;18.80;15.17;;;;;;;;;;523839;28;1507;-63
2022/12/03 09:20:31;;;;;;;18.57;15.23;;;;;;;;;;521170;28;1478;-63
2022/12/03 09:20:46;;;;;;;18.50;15.00;;;;;;;;;;521097;28;1172;-63
2022/12/03 09:21:02;;;;;;;19.00;15.23;;;;;;;;;;523695;28;951;-63
2022/12/03 09:21:17;;;;;;;19.60;15.50;;;;;;;;;;523746;28;1101;-62
2022/12/03 09:21:32;;;;;;;19.88;15.20;;;;;;;;;;522871;28;1090;-62
2022/12/03 09:21:48;;;;;;;19.10;15.13;;;;;;;;;;522939;28;1119;-62
2022/12/03 09:22:03;;;;;;;18.70;15.37;;;;;;;;;;520703;28;1223;-62
2022/12/03 09:22:18;;;;;;;19.55;15.63;;;;;;;;;;522460;28;1304;-63
2022/12/03 09:22:34;;;;;;;19.77;15.43;;;;;;;;;;524666;28;1115;-62
2022/12/03 09:22:49;;;;;;;20.00;15.50;;;;;;;;;;525619;28;1141;-62
2022/12/03 09:23:04;;;;;;;20.25;15.65;;;;;;;;;;525380;28;1137;-62
2022/12/03 09:23:19;;;;;;;20.10;15.33;;;;;;;;;;524081;28;1014;-63
2022/12/03 09:23:35;;;;;;;19.20;15.10;;;;;;;;;;523634;28;1213;-63
2022/12/03 09:23:50;;;;;;;18.75;14.98;;;;;;;;;;523896;28;1718;-63
2022/12/03 09:24:06;;;;;;;18.83;14.90;;;;;;;;;;527529;27;1210;-63
2022/12/03 09:24:21;;;;;;;19.23;15.00;;;;;;;;;;525649;28;1483;-63
2022/12/03 09:24:36;;;;;;;19.07;15.03;;;;;;;;;;524713;28;1268;-63
2022/12/03 09:24:52;;;;;;;20.03;15.43;;;;;;;;;;523009;28;1226;-63
2022/12/03 09:25:07;;;;;;;21.10;15.93;;;;;;;;;;523728;28;1039;-63
2022/12/03 09:25:23;;;;;;;20.17;15.87;;;;;;;;;;521322;28;1581;-63
2022/12/03 09:25:38;;;;;;;20.15;15.93;;;;;;;;;;522933;28;1652;-62
2022/12/03 09:25:53;;;;;;;20.70;16.13;;;;;;;;;;522714;28;1218;-63
2022/12/03 09:26:08;;;;;;;19.77;15.83;;;;;;;;;;519020;28;1476;-62
2022/12/03 09:26:25;;;;;;;20.15;16.13;;;;;;;;;;520583;28;1358;-62
2022/12/03 09:26:41;;;;;;;20.88;16.27;;;;;;;;;;521528;28;1185;-63
2022/12/03 09:26:56;;;;;;;20.48;15.95;;;;;;;;;;519662;28;1541;-63
2022/12/03 09:27:11;;;;;;;20.47;16.10;;;;;;;;;;519743;28;1404;-63
2022/12/03 09:27:27;;;;;;;20.90;16.10;;;;;;;;;;519322;28;1412;-63
2022/12/03 09:27:42;;;;;;;20.33;15.75;;;;;;;;;;520395;28;1796;-63
2022/12/03 09:27:57;;;;;;;20.13;15.83;;;;;;;;;;522764;28;1157;-63
2022/12/03 09:28:12;;;;;;;20.57;16.27;;;;;;;;;;524433;28;1301;-63
2022/12/03 09:28:28;;;;;;;20.67;16.27;;;;;;;;;;525386;28;1241;-63
2022/12/03 09:28:43;;;;;;;20.27;15.97;;;;;;;;;;523027;28;1304;-63
2022/12/03 09:28:58;;;;;;;19.47;15.33;;;;;;;;;;525455;28;1156;-63
2022/12/03 09:29:13;;;;;;;19.67;15.47;;;;;;;;;;524500;28;1442;-63
2022/12/03 09:29:29;;;;;;;19.83;15.82;;;;;;;;;;520734;28;972;-63
2022/12/03 09:29:44;;;;;;;19.30;15.67;;;;;;;;;;524736;28;1171;-63
2022/12/03 09:29:59;;;;;;;22.30;16.07;;;;;;;;;;522835;28;1036;-63
2022/12/03 09:30:15;;;;;;;22.75;16.23;;;;;;;;;;518848;28;1280;-63
2022/12/03 09:30:31;;;;;;;19.23;15.33;;;;;;;;;;518838;28;1421;-63
2022/12/03 09:30:46;;;;;;;19.07;15.10;;;;;;;;;;519234;28;1313;-63
2022/12/03 09:31:01;;;;;;;20.20;15.63;;;;;;;;;;519179;28;1123;-63
2022/12/03 09:31:17;;;;;;;20.45;15.93;;;;;;;;;;518643;28;1118;-63
2022/12/03 09:31:33;;;;;;;20.10;15.63;;;;;;;;;;517985;28;1033;-65
2022/12/03 09:31:48;;;;;;;20.05;15.75;;;;;;;;;;519171;28;998;-63
2022/12/03 09:32:03;;;;;;;19.63;15.88;;;;;;;;;;521042;28;1142;-63
2022/12/03 09:32:19;;;;;;;19.70;16.00;;;;;;;;;;522286;28;1153;-63
2022/12/03 09:32:34;;;;;;;20.00;16.07;;;;;;;;;;522643;28;1333;-63
2022/12/03 09:32:49;;;;;;;20.65;16.00;;;;;;;;;;525011;28;1082;-63
2022/12/03 09:33:05;;;;;;;20.40;15.87;;;;;;;;;;524310;28;1117;-63
2022/12/03 09:33:20;;;;;;;19.17;15.70;;;;;;;;;;522524;28;1235;-63
2022/12/03 09:33:35;;;;;;;19.98;15.98;;;;;;;;;;522558;28;1153;-63
2022/12/03 09:33:51;;;;;;;20.67;16.20;;;;;;;;;;522534;28;1264;-63
2022/12/03 09:34:07;;;;;;;20.00;16.13;;;;;;;;;;521497;28;1161;-63
2022/12/03 09:34:22;;;;;;;20.25;16.15;;;;;;;;;;523619;28;1141;-62
2022/12/03 09:34:38;;;;;;;20.10;15.87;;;;;;;;;;523296;28;1322;-63
2022/12/03 09:34:53;;;;;;;19.43;15.60;;;;;;;;;;521325;28;1299;-63
2022/12/03 09:35:09;;;;;;;20.33;15.73;;;;;;;;;;521786;28;1201;-62
2022/12/03 09:35:24;;;;;;;19.77;15.67;;;;;;;;;;521165;28;1051;-63
2022/12/03 09:35:40;;;;;;;19.65;15.82;;;;;;;;;;522799;28;1094;-63
2022/12/03 09:35:55;;;;;;;21.15;16.17;;;;;;;;;;523122;28;1438;-63
2022/12/03 09:36:10;;;;;;;20.87;15.97;;;;;;;;;;523298;28;1422;-63
2022/12/03 09:36:26;;;;;;;20.33;15.90;;;;;;;;;;522255;28;1135;-63
2022/12/03 09:36:41;;;;;;;20.55;15.98;;;;;;;;;;524479;28;1082;-63
2022/12/03 09:36:56;;;;;;;20.00;15.57;;;;;;;;;;524871;28;1105;-63
2022/12/03 09:37:11;;;;;;;20.37;15.53;;;;;;;;;;525209;28;1148;-63
2022/12/03 09:37:27;;;;;;;20.53;15.53;;;;;;;;;;525325;28;1073;-63
2022/12/03 09:37:42;;;;;;;20.42;15.52;;;;;;;;;;523882;28;1277;-63
2022/12/03 09:37:57;;;;;;;19.93;15.80;;;;;;;;;;523822;28;1145;-63
2022/12/03 09:38:13;;;;;;;19.53;15.87;;;;;;;;;;523077;28;1937;-63
2022/12/03 09:38:28;;;;;;;20.17;16.02;;;;;;;;;;525498;28;1105;-63
2022/12/03 09:38:43;;;;;;;20.50;16.37;;;;;;;;;;525288;28;1292;-63
2022/12/03 09:38:58;;;;;;;21.03;16.30;;;;;;;;;;524942;28;1125;-63
2022/12/03 09:39:14;;;;;;;21.00;16.37;;;;;;;;;;524238;28;1241;-63
2022/12/03 09:39:29;;;;;;;19.83;16.05;;;;;;;;;;524322;28;1236;-63
2022/12/03 09:39:44;;;;;;;20.40;16.17;;;;;;;;;;522894;28;1066;-63
2022/12/03 09:39:59;;;;;;;21.27;16.47;;;;;;;;;;522527;28;1006;-63
2022/12/03 09:40:15;;;;;;;21.63;16.70;;;;;;;;;;525162;28;1071;-64
2022/12/03 09:40:30;;;;;;;22.90;17.30;;;;;;;;;;522063;28;1183;-64
2022/12/03 09:40:45;;;;;;;22.67;16.90;;;;;;;;;;524351;28;1098;-63
2022/12/03 09:41:01;;;;;;;21.42;16.73;;;;;;;;;;522719;28;1223;-63
2022/12/03 09:41:16;;;;;;;22.23;17.50;;;;;;;;;;520046;28;1249;-63
2022/12/03 09:41:31;;;;;;;22.70;17.73;;;;;;;;;;520972;28;1078;-63
2022/12/03 09:41:48;;;;;;;23.10;17.33;;;;;;;;;;520645;28;1138;-63
2022/12/03 09:42:03;;;;;;;23.00;17.30;;;;;;;;;;517309;28;1333;-62
2022/12/03 09:42:19;;;;;;;22.48;17.17;;;;;;;;;;517783;28;1448;-63
2022/12/03 09:42:34;;;;;;;22.27;16.93;;;;;;;;;;521845;28;1066;-63
2022/12/03 09:42:50;;;;;;;21.98;17.23;;;;;;;;;;520680;28;1138;-63
2022/12/03 09:43:06;;;;;;;21.80;17.08;;;;;;;;;;520791;28;1098;-63
2022/12/03 09:43:21;;;;;;;22.93;17.37;;;;;;;;;;522011;28;1161;-64
2022/12/03 09:43:36;;;;;;;23.08;17.70;;;;;;;;;;522410;28;1085;-63
2022/12/03 09:43:52;;;;;;;21.97;17.37;;;;;;;;;;521056;28;1187;-63
2022/12/03 09:44:08;;;;;;;22.05;17.40;;;;;;;;;;523410;28;1109;-63
2022/12/03 09:44:27;;;;;;;23.05;17.30;;;;;;;;;;525630;28;1230;-62
2022/12/03 09:44:43;;;;;;;22.67;17.08;;;;;;;;;;523451;28;1142;-63
2022/12/03 09:44:58;;;;;;;21.77;17.07;;;;;;;;;;523309;28;1193;-63
2022/12/03 09:45:14;;;;;;;21.40;16.92;;;;;;;;;;521498;28;1179;-63
2022/12/03 09:45:30;;;;;;;21.05;16.40;;;;;;;;;;521877;28;1201;-62
2022/12/03 09:45:47;;;;;;;21.43;16.63;;;;;;;;;;519545;28;1293;-63
2022/12/03 09:46:03;;;;;;;22.33;17.23;;;;;;;;;;519751;28;1201;-63
2022/12/03 09:46:20;;;;;;;21.80;17.02;;;;;;;;;;521389;28;1517;-62
2022/12/03 09:46:37;;;;;;;21.00;16.60;;;;;;;;;;518796;28;1142;-63
2022/12/03 09:46:53;;;;;;;21.33;16.48;;;;;;;;;;522345;28;1238;-63
2022/12/03 09:47:08;;;;;;;21.33;16.57;;;;;;;;;;522214;28;1288;-63
2022/12/03 09:47:24;;;;;;;20.67;16.20;;;;;;;;;;522183;28;1105;-63
2022/12/03 09:47:43;;;;;;;20.50;16.00;;;;;;;;;;520428;28;1198;-63
2022/12/03 09:48:01;;;;;;;21.20;17.00;;;;;;;;;;522706;28;1241;-63
2022/12/03 09:48:20;;;;;;;21.15;16.90;;;;;;;;;;523571;28;1110;-63